sensor_id;sensor_type;location;lat;lon;timestamp;pressure;altitude;pressure_sealevel;temperature;humidity
44457;BME280;30159;49.316;8.558;2024-01-10T00:01:13;101502.59;;;-3.52;73.23
44457;BME280;30159;49.316;8.558;2024-01-10T00:03:40;101494.69;;;-3.52;73.41
44457;BME280;30159;49.316;8.558;2024-01-10T00:06:07;101481.84;;;-3.55;73.69
44457;BME280;30159;49.316;8.558;2024-01-10T00:08:33;101488.75;;;-3.54;73.44
44457;BME280;30159;49.316;8.558;2024-01-10T00:11:00;101491.38;;;-3.54;74.01
44457;BME280;30159;49.316;8.558;2024-01-10T00:13:28;101462.97;;;-3.77;73.97
44457;BME280;30159;49.316;8.558;2024-01-10T00:15:55;101475.88;;;-3.66;73.99
44457;BME280;30159;49.316;8.558;2024-01-10T00:18:24;101490.06;;;-3.58;74.51
44457;BME280;30159;49.316;8.558;2024-01-10T00:20:51;101494.16;;;-3.64;75.53
44457;BME280;30159;49.316;8.558;2024-01-10T00:23:19;101488.53;;;-3.69;76.39
44457;BME280;30159;49.316;8.558;2024-01-10T00:25:46;101483.41;;;-3.71;76.10
44457;BME280;30159;49.316;8.558;2024-01-10T00:28:12;101467.44;;;-3.77;77.37
44457;BME280;30159;49.316;8.558;2024-01-10T00:30:40;101482.91;;;-3.74;76.94
44457;BME280;30159;49.316;8.558;2024-01-10T00:33:07;101476.44;;;-3.80;76.77
44457;BME280;30159;49.316;8.558;2024-01-10T00:35:34;101474.03;;;-3.73;76.80
44457;BME280;30159;49.316;8.558;2024-01-10T00:38:00;101456.34;;;-3.89;76.39
44457;BME280;30159;49.316;8.558;2024-01-10T00:40:27;101466.78;;;-3.71;75.54
44457;BME280;30159;49.316;8.558;2024-01-10T00:42:54;101471.63;;;-3.50;73.49
44457;BME280;30159;49.316;8.558;2024-01-10T00:45:20;101477.81;;;-3.25;71.00
44457;BME280;30159;49.316;8.558;2024-01-10T00:47:49;101468.06;;;-3.25;71.30
44457;BME280;30159;49.316;8.558;2024-01-10T00:50:16;101455.22;;;-3.28;73.64
44457;BME280;30159;49.316;8.558;2024-01-10T00:52:43;101467.09;;;-3.15;72.21
44457;BME280;30159;49.316;8.558;2024-01-10T00:55:10;101466.94;;;-3.14;72.98
44457;BME280;30159;49.316;8.558;2024-01-10T00:57:37;101469.75;;;-3.07;70.15
44457;BME280;30159;49.316;8.558;2024-01-10T01:00:05;101467.44;;;-2.94;69.73
44457;BME280;30159;49.316;8.558;2024-01-10T01:02:31;101468.28;;;-2.85;70.65
44457;BME280;30159;49.316;8.558;2024-01-10T01:05:00;101459.56;;;-2.86;72.01
44457;BME280;30159;49.316;8.558;2024-01-10T01:07:26;101479.03;;;-2.79;72.36
44457;BME280;30159;49.316;8.558;2024-01-10T01:09:53;101472.91;;;-2.79;72.15
44457;BME280;30159;49.316;8.558;2024-01-10T01:12:20;101458.91;;;-2.80;72.51
44457;BME280;30159;49.316;8.558;2024-01-10T01:14:46;101469.78;;;-2.74;72.45
44457;BME280;30159;49.316;8.558;2024-01-10T01:17:13;101474.06;;;-2.65;72.54
44457;BME280;30159;49.316;8.558;2024-01-10T01:19:40;101456.25;;;-2.80;74.37
44457;BME280;30159;49.316;8.558;2024-01-10T01:22:08;101468.31;;;-2.77;74.26
44457;BME280;30159;49.316;8.558;2024-01-10T01:24:34;101457.56;;;-2.84;74.93
44457;BME280;30159;49.316;8.558;2024-01-10T01:27:02;101481.00;;;-2.64;75.21
44457;BME280;30159;49.316;8.558;2024-01-10T01:29:28;101478.03;;;-2.69;75.88
44457;BME280;30159;49.316;8.558;2024-01-10T01:31:57;101489.72;;;-2.64;75.99
44457;BME280;30159;49.316;8.558;2024-01-10T01:34:24;101482.00;;;-2.65;75.85
44457;BME280;30159;49.316;8.558;2024-01-10T01:36:50;101477.88;;;-2.68;75.56
44457;BME280;30159;49.316;8.558;2024-01-10T01:39:18;101475.88;;;-2.58;75.44
44457;BME280;30159;49.316;8.558;2024-01-10T01:41:45;101484.63;;;-2.57;74.90
44457;BME280;30159;49.316;8.558;2024-01-10T01:44:13;101485.28;;;-2.55;75.47
44457;BME280;30159;49.316;8.558;2024-01-10T01:46:40;101479.03;;;-2.62;74.34
44457;BME280;30159;49.316;8.558;2024-01-10T01:49:06;101479.34;;;-2.57;75.62
44457;BME280;30159;49.316;8.558;2024-01-10T01:51:35;101477.03;;;-2.52;75.24
44457;BME280;30159;49.316;8.558;2024-01-10T01:54:03;101483.78;;;-2.49;75.99
44457;BME280;30159;49.316;8.558;2024-01-10T01:56:32;101481.81;;;-2.47;76.30
44457;BME280;30159;49.316;8.558;2024-01-10T01:58:59;101477.38;;;-2.47;75.11
44457;BME280;30159;49.316;8.558;2024-01-10T02:01:25;101469.59;;;-2.48;74.91
44457;BME280;30159;49.316;8.558;2024-01-10T02:03:52;101484.63;;;-2.49;75.78
44457;BME280;30159;49.316;8.558;2024-01-10T02:06:19;101473.72;;;-2.46;74.37
44457;BME280;30159;49.316;8.558;2024-01-10T02:08:46;101468.28;;;-2.52;75.26
44457;BME280;30159;49.316;8.558;2024-01-10T02:11:12;101468.78;;;-2.49;73.20
44457;BME280;30159;49.316;8.558;2024-01-10T02:13:41;101415.00;;;-2.81;73.17
44457;BME280;30159;49.316;8.558;2024-01-10T02:16:08;101461.53;;;-2.55;72.97
44457;BME280;30159;49.316;8.558;2024-01-10T02:18:34;101446.50;;;-2.63;73.77
44457;BME280;30159;49.316;8.558;2024-01-10T02:21:01;101468.13;;;-2.51;74.54
44457;BME280;30159;49.316;8.558;2024-01-10T02:23:28;101461.69;;;-2.48;74.29
44457;BME280;30159;49.316;8.558;2024-01-10T02:25:56;101464.63;;;-2.43;74.45
44457;BME280;30159;49.316;8.558;2024-01-10T02:28:22;101461.50;;;-2.39;74.22
44457;BME280;30159;49.316;8.558;2024-01-10T02:30:49;101454.91;;;-2.35;74.90
44457;BME280;30159;49.316;8.558;2024-01-10T02:33:17;101447.78;;;-2.34;70.97
44457;BME280;30159;49.316;8.558;2024-01-10T02:35:43;101457.38;;;-2.41;70.69
44457;BME280;30159;49.316;8.558;2024-01-10T02:38:10;101454.22;;;-2.37;69.28
44457;BME280;30159;49.316;8.558;2024-01-10T02:40:36;101444.47;;;-2.28;70.78
44457;BME280;30159;49.316;8.558;2024-01-10T02:43:04;101425.78;;;-2.18;68.33
44457;BME280;30159;49.316;8.558;2024-01-10T02:45:32;101442.97;;;-2.14;69.05
44457;BME280;30159;49.316;8.558;2024-01-10T02:47:59;101440.94;;;-2.04;68.71
44457;BME280;30159;49.316;8.558;2024-01-10T02:50:25;101434.28;;;-1.92;66.23
44457;BME280;30159;49.316;8.558;2024-01-10T02:52:52;101430.34;;;-1.96;67.56
44457;BME280;30159;49.316;8.558;2024-01-10T02:55:18;101436.97;;;-2.00;68.31
44457;BME280;30159;49.316;8.558;2024-01-10T02:57:45;101432.28;;;-1.89;65.86
44457;BME280;30159;49.316;8.558;2024-01-10T03:00:14;101414.16;;;-2.01;66.44
44457;BME280;30159;49.316;8.558;2024-01-10T03:02:40;101442.66;;;-1.80;65.29
44457;BME280;30159;49.316;8.558;2024-01-10T03:05:07;101429.84;;;-1.91;63.57
44457;BME280;30159;49.316;8.558;2024-01-10T03:07:34;101420.44;;;-2.02;63.30
44457;BME280;30159;49.316;8.558;2024-01-10T03:10:01;101429.41;;;-2.11;64.17
44457;BME280;30159;49.316;8.558;2024-01-10T03:12:29;101429.75;;;-2.14;63.37
44457;BME280;30159;49.316;8.558;2024-01-10T03:14:55;101400.38;;;-2.36;64.07
44457;BME280;30159;49.316;8.558;2024-01-10T03:17:23;101424.78;;;-2.17;62.53
44457;BME280;30159;49.316;8.558;2024-01-10T03:19:50;101419.19;;;-2.22;64.23
44457;BME280;30159;49.316;8.558;2024-01-10T03:22:17;101424.63;;;-2.24;63.98
44457;BME280;30159;49.316;8.558;2024-01-10T03:24:44;101414.25;;;-2.25;62.83
44457;BME280;30159;49.316;8.558;2024-01-10T03:27:10;101406.31;;;-2.25;62.90
44457;BME280;30159;49.316;8.558;2024-01-10T03:29:37;101397.44;;;-2.41;62.32
44457;BME280;30159;49.316;8.558;2024-01-10T03:32:04;101418.91;;;-2.44;63.03
44457;BME280;30159;49.316;8.558;2024-01-10T03:34:32;101418.91;;;-2.44;63.70
44457;BME280;30159;49.316;8.558;2024-01-10T03:36:58;101408.03;;;-2.57;63.19
44457;BME280;30159;49.316;8.558;2024-01-10T03:39:25;101422.22;;;-2.50;62.52
44457;BME280;30159;49.316;8.558;2024-01-10T03:41:51;101411.69;;;-2.58;62.59
44457;BME280;30159;49.316;8.558;2024-01-10T03:44:18;101417.44;;;-2.55;63.38
44457;BME280;30159;49.316;8.558;2024-01-10T03:46:44;101422.25;;;-2.58;63.19
44457;BME280;30159;49.316;8.558;2024-01-10T03:49:11;101404.09;;;-2.69;63.17
44457;BME280;30159;49.316;8.558;2024-01-10T03:51:39;101404.75;;;-2.67;63.13
44457;BME280;30159;49.316;8.558;2024-01-10T03:54:07;101386.78;;;-2.80;62.66
44457;BME280;30159;49.316;8.558;2024-01-10T03:56:33;101424.22;;;-2.60;63.23
44457;BME280;30159;49.316;8.558;2024-01-10T03:59:00;101428.34;;;-2.58;62.14
44457;BME280;30159;49.316;8.558;2024-01-10T04:01:27;101427.34;;;-2.57;63.11
44457;BME280;30159;49.316;8.558;2024-01-10T04:03:54;101416.63;;;-2.55;62.24
44457;BME280;30159;49.316;8.558;2024-01-10T04:06:20;101422.91;;;-2.56;62.48
44457;BME280;30159;49.316;8.558;2024-01-10T04:08:48;101416.31;;;-2.60;62.39
44457;BME280;30159;49.316;8.558;2024-01-10T04:11:15;101417.94;;;-2.59;62.39
44457;BME280;30159;49.316;8.558;2024-01-10T04:13:41;101411.69;;;-2.58;62.42
44457;BME280;30159;49.316;8.558;2024-01-10T04:16:08;101422.56;;;-2.61;62.60
44457;BME280;30159;49.316;8.558;2024-01-10T04:18:34;101419.44;;;-2.65;62.38
44457;BME280;30159;49.316;8.558;2024-01-10T04:21:01;101424.88;;;-2.66;62.30
44457;BME280;30159;49.316;8.558;2024-01-10T04:23:28;101427.22;;;-2.63;63.26
44457;BME280;30159;49.316;8.558;2024-01-10T04:25:57;101431.16;;;-2.67;63.04
44457;BME280;30159;49.316;8.558;2024-01-10T04:28:23;101397.53;;;-2.82;62.60
44457;BME280;30159;49.316;8.558;2024-01-10T04:30:50;101419.28;;;-2.63;63.42
44457;BME280;30159;49.316;8.558;2024-01-10T04:33:17;101416.50;;;-2.70;63.36
44457;BME280;30159;49.316;8.558;2024-01-10T04:35:43;101406.44;;;-2.74;62.82
44457;BME280;30159;49.316;8.558;2024-01-10T04:38:10;101421.09;;;-2.56;63.65
44457;BME280;30159;49.316;8.558;2024-01-10T04:40:36;101424.88;;;-2.66;63.69
44457;BME280;30159;49.316;8.558;2024-01-10T04:43:04;101426.19;;;-2.70;62.83
44457;BME280;30159;49.316;8.558;2024-01-10T04:45:31;101422.56;;;-2.78;63.49
44457;BME280;30159;49.316;8.558;2024-01-10T04:47:58;101428.84;;;-2.70;63.09
44457;BME280;30159;49.316;8.558;2024-01-10T04:50:24;101417.47;;;-2.71;63.59
44457;BME280;30159;49.316;8.558;2024-01-10T04:52:51;101434.66;;;-2.75;62.52
44457;BME280;30159;49.316;8.558;2024-01-10T04:55:18;101428.22;;;-2.72;64.12
44457;BME280;30159;49.316;8.558;2024-01-10T04:57:44;101436.13;;;-2.72;63.55
44457;BME280;30159;49.316;8.558;2024-01-10T05:00:13;101440.72;;;-2.83;63.56
44457;BME280;30159;49.316;8.558;2024-01-10T05:02:40;101435.78;;;-2.86;64.08
44457;BME280;30159;49.316;8.558;2024-01-10T05:05:07;101428.53;;;-2.76;64.34
44457;BME280;30159;49.316;8.558;2024-01-10T05:07:33;101426.72;;;-2.83;63.43
44457;BME280;30159;49.316;8.558;2024-01-10T05:10:00;101280.47;;;-3.79;64.35
44457;BME280;30159;49.316;8.558;2024-01-10T05:12:27;101436.28;;;-2.74;63.84
44457;BME280;30159;49.316;8.558;2024-01-10T05:14:53;101440.06;;;-2.85;64.02
44457;BME280;30159;49.316;8.558;2024-01-10T05:17:21;101435.28;;;-2.89;63.89
44457;BME280;30159;49.316;8.558;2024-01-10T05:19:48;101415.84;;;-2.88;63.99
44457;BME280;30159;49.316;8.558;2024-01-10T05:22:15;101428.38;;;-2.74;64.81
44457;BME280;30159;49.316;8.558;2024-01-10T05:24:41;101423.91;;;-2.73;64.84
44457;BME280;30159;49.316;8.558;2024-01-10T05:27:08;101425.22;;;-2.78;64.28
44457;BME280;30159;49.316;8.558;2024-01-10T05:29:34;101425.88;;;-2.67;64.81
44457;BME280;30159;49.316;8.558;2024-01-10T05:32:01;101418.63;;;-2.73;64.09
44457;BME280;30159;49.316;8.558;2024-01-10T05:34:29;101415.00;;;-2.72;64.23
44457;BME280;30159;49.316;8.558;2024-01-10T05:36:56;101429.84;;;-2.71;63.71
44457;BME280;30159;49.316;8.558;2024-01-10T05:39:22;101430.84;;;-2.72;64.82
44457;BME280;30159;49.316;8.558;2024-01-10T05:41:49;101413.00;;;-2.70;64.68
44457;BME280;30159;49.316;8.558;2024-01-10T05:44:16;101420.78;;;-2.61;64.55
44457;BME280;30159;49.316;8.558;2024-01-10T05:46:43;101430.00;;;-2.73;63.75
44457;BME280;30159;49.316;8.558;2024-01-10T05:49:09;101423.91;;;-2.73;64.02
44457;BME280;30159;49.316;8.558;2024-01-10T05:51:38;101423.91;;;-2.73;64.43
44457;BME280;30159;49.316;8.558;2024-01-10T05:54:05;101425.38;;;-2.63;63.74
44457;BME280;30159;49.316;8.558;2024-01-10T05:56:32;101431.84;;;-2.65;63.90
44457;BME280;30159;49.316;8.558;2024-01-10T05:58:59;101431.66;;;-2.56;65.28
44457;BME280;30159;49.316;8.558;2024-01-10T06:01:26;101306.03;;;-3.47;64.26
44457;BME280;30159;49.316;8.558;2024-01-10T06:03:54;101426.53;;;-2.57;65.05
44457;BME280;30159;49.316;8.558;2024-01-10T06:06:21;101426.34;;;-2.39;63.67
44457;BME280;30159;49.316;8.558;2024-01-10T06:08:49;101429.66;;;-2.53;63.22
44457;BME280;30159;49.316;8.558;2024-01-10T06:11:16;101435.44;;;-2.42;64.86
44457;BME280;30159;49.316;8.558;2024-01-10T06:13:43;101438.38;;;-2.37;64.13
44457;BME280;30159;49.316;8.558;2024-01-10T06:16:09;101427.81;;;-2.45;64.57
44457;BME280;30159;49.316;8.558;2024-01-10T06:18:36;101429.78;;;-2.39;64.20
44457;BME280;30159;49.316;8.558;2024-01-10T06:21:03;101433.88;;;-2.20;64.29
44457;BME280;30159;49.316;8.558;2024-01-10T06:23:30;101432.69;;;-2.09;64.43
44457;BME280;30159;49.316;8.558;2024-01-10T06:25:58;101424.31;;;-2.21;63.69
44457;BME280;30159;49.316;8.558;2024-01-10T06:28:24;101425.53;;;-2.40;64.01
44457;BME280;30159;49.316;8.558;2024-01-10T06:30:51;101443.34;;;-2.42;63.83
44457;BME280;30159;49.316;8.558;2024-01-10T06:33:18;101436.41;;;-2.43;64.09
44457;BME280;30159;49.316;8.558;2024-01-10T06:35:45;101429.47;;;-2.44;63.65
44457;BME280;30159;49.316;8.558;2024-01-10T06:38:12;101435.19;;;-2.24;64.04
44457;BME280;30159;49.316;8.558;2024-01-10T06:40:38;101438.03;;;-2.34;63.87
44457;BME280;30159;49.316;8.558;2024-01-10T06:43:07;101441.44;;;-2.08;63.22
44457;BME280;30159;49.316;8.558;2024-01-10T06:45:34;101445.22;;;-2.03;63.25
44457;BME280;30159;49.316;8.558;2024-01-10T06:48:01;101433.50;;;-2.08;63.97
44457;BME280;30159;49.316;8.558;2024-01-10T06:50:28;101442.22;;;-1.92;63.60
44457;BME280;30159;49.316;8.558;2024-01-10T06:52:55;101444.09;;;-2.08;63.10
44457;BME280;30159;49.316;8.558;2024-01-10T06:55:22;101418.88;;;-2.27;64.40
44457;BME280;30159;49.316;8.558;2024-01-10T06:57:49;101449.53;;;-2.02;64.44
44457;BME280;30159;49.316;8.558;2024-01-10T07:00:19;101452.41;;;-1.80;63.33
44457;BME280;30159;49.316;8.558;2024-01-10T07:02:46;101447.47;;;-1.83;63.89
44457;BME280;30159;49.316;8.558;2024-01-10T07:05:14;101453.56;;;-1.75;64.05
44457;BME280;30159;49.316;8.558;2024-01-10T07:07:41;101454.00;;;-1.63;63.11
44457;BME280;30159;49.316;8.558;2024-01-10T07:10:08;101453.34;;;-1.65;63.74
44457;BME280;30159;49.316;8.558;2024-01-10T07:12:36;101451.88;;;-1.67;63.59
44457;BME280;30159;49.316;8.558;2024-01-10T07:15:03;101457.16;;;-1.67;63.17
44457;BME280;30159;49.316;8.558;2024-01-10T07:17:31;101465.91;;;-1.67;62.93
44457;BME280;30159;49.316;8.558;2024-01-10T07:19:58;101471.03;;;-1.65;63.54
44457;BME280;30159;49.316;8.558;2024-01-10T07:22:25;101456.53;;;-1.78;62.57
44457;BME280;30159;49.316;8.558;2024-01-10T07:24:52;101468.69;;;-2.00;62.71
44457;BME280;30159;49.316;8.558;2024-01-10T07:27:18;101478.59;;;-2.10;63.35
44457;BME280;30159;49.316;8.558;2024-01-10T07:29:45;101459.13;;;-2.17;64.74
44457;BME280;30159;49.316;8.558;2024-01-10T07:32:12;101468.63;;;-1.92;64.42
44457;BME280;30159;49.316;8.558;2024-01-10T07:34:40;101474.00;;;-1.68;63.62
44457;BME280;30159;49.316;8.558;2024-01-10T07:37:06;101478.47;;;-1.61;62.87
44457;BME280;30159;49.316;8.558;2024-01-10T07:39:34;101474.81;;;-1.68;63.17
44457;BME280;30159;49.316;8.558;2024-01-10T07:42:01;101478.47;;;-1.61;62.96
44457;BME280;30159;49.316;8.558;2024-01-10T07:44:27;101485.41;;;-1.68;63.36
44457;BME280;30159;49.316;8.558;2024-01-10T07:46:54;101486.94;;;-1.74;63.35
44457;BME280;30159;49.316;8.558;2024-01-10T07:49:21;101477.69;;;-1.78;63.73
44457;BME280;30159;49.316;8.558;2024-01-10T07:51:50;101494.56;;;-1.79;64.94
44457;BME280;30159;49.316;8.558;2024-01-10T07:54:17;101496.34;;;-1.71;64.93
44457;BME280;30159;49.316;8.558;2024-01-10T07:56:44;101495.69;;;-1.73;65.86
44457;BME280;30159;49.316;8.558;2024-01-10T07:59:10;101486.81;;;-1.88;65.00
44457;BME280;30159;49.316;8.558;2024-01-10T08:01:40;101499.38;;;-1.91;64.24
44457;BME280;30159;49.316;8.558;2024-01-10T08:04:06;101493.75;;;-1.87;64.42
44457;BME280;30159;49.316;8.558;2024-01-10T08:06:33;101508.28;;;-1.92;64.38
44457;BME280;30159;49.316;8.558;2024-01-10T08:09:01;101495.97;;;-1.60;64.22
44457;BME280;30159;49.316;8.558;2024-01-10T08:11:29;101500.13;;;-1.65;64.17
44457;BME280;30159;49.316;8.558;2024-01-10T08:13:56;101506.91;;;-1.71;63.53
44457;BME280;30159;49.316;8.558;2024-01-10T08:16:22;101503.25;;;-1.62;65.44
44457;BME280;30159;49.316;8.558;2024-01-10T08:18:49;101429.75;;;-2.14;64.89
44457;BME280;30159;49.316;8.558;2024-01-10T08:21:16;101508.88;;;-1.65;64.00
44457;BME280;30159;49.316;8.558;2024-01-10T08:23:42;101511.22;;;-1.70;65.25
44457;BME280;30159;49.316;8.558;2024-01-10T08:26:10;101498.53;;;-1.75;65.01
44457;BME280;30159;49.316;8.558;2024-01-10T08:28:37;101488.91;;;-1.76;64.48
44457;BME280;30159;49.316;8.558;2024-01-10T08:31:04;101503.38;;;-1.55;65.22
44457;BME280;30159;49.316;8.558;2024-01-10T08:33:31;101503.59;;;-1.65;64.16
44457;BME280;30159;49.316;8.558;2024-01-10T08:35:57;101471.28;;;-1.83;63.82
44457;BME280;30159;49.316;8.558;2024-01-10T08:38:25;101504.28;;;-1.71;65.67
44457;BME280;30159;49.316;8.558;2024-01-10T08:40:51;101499.44;;;-1.59;65.26
44457;BME280;30159;49.316;8.558;2024-01-10T08:43:19;101508.16;;;-1.51;64.22
44457;BME280;30159;49.316;8.558;2024-01-10T08:45:46;101507.81;;;-1.48;64.78
44457;BME280;30159;49.316;8.558;2024-01-10T08:48:12;101509.94;;;-1.43;63.69
44457;BME280;30159;49.316;8.558;2024-01-10T08:50:39;101505.06;;;-1.23;63.33
44457;BME280;30159;49.316;8.558;2024-01-10T08:53:06;101508.19;;;-0.96;63.85
44457;BME280;30159;49.316;8.558;2024-01-10T08:55:33;101466.41;;;-1.32;64.27
44457;BME280;30159;49.316;8.558;2024-01-10T08:58:02;101520.63;;;-0.74;64.08
44457;BME280;30159;49.316;8.558;2024-01-10T09:00:30;101511.13;;;-0.45;63.90
44457;BME280;30159;49.316;8.558;2024-01-10T09:02:57;101498.19;;;-0.25;62.53
44457;BME280;30159;49.316;8.558;2024-01-10T09:05:24;101500.94;;;-0.18;62.21
44457;BME280;30159;49.316;8.558;2024-01-10T09:07:50;101496.97;;;-0.37;62.01
44457;BME280;30159;49.316;8.558;2024-01-10T09:10:19;101471.38;;;-0.83;63.19
44457;BME280;30159;49.316;8.558;2024-01-10T09:12:46;101511.78;;;-0.43;62.63
44457;BME280;30159;49.316;8.558;2024-01-10T09:15:13;101503.75;;;-0.35;62.65
44457;BME280;30159;49.316;8.558;2024-01-10T09:17:41;101500.75;;;-0.70;62.75
44457;BME280;30159;49.316;8.558;2024-01-10T09:20:09;101485.91;;;-0.79;63.91
44457;BME280;30159;49.316;8.558;2024-01-10T09:22:35;101514.31;;;-0.73;64.22
44457;BME280;30159;49.316;8.558;2024-01-10T09:25:03;101470.56;;;-0.83;63.04
44457;BME280;30159;49.316;8.558;2024-01-10T09:27:31;101519.94;;;-0.30;63.62
44457;BME280;30159;49.316;8.558;2024-01-10T09:29:58;101505.41;;;-0.19;62.78
44457;BME280;30159;49.316;8.558;2024-01-10T09:32:27;101508.59;;;-0.24;63.21
44457;BME280;30159;49.316;8.558;2024-01-10T09:34:55;101500.69;;;-0.09;62.85
44457;BME280;30159;49.316;8.558;2024-01-10T09:37:21;101516.56;;;-0.24;62.48
44457;BME280;30159;49.316;8.558;2024-01-10T09:39:48;101506.06;;;-0.17;62.80
44457;BME280;30159;49.316;8.558;2024-01-10T09:42:15;101517.59;;;-0.10;62.45
44457;BME280;30159;49.316;8.558;2024-01-10T09:44:42;101530.69;;;-0.46;63.08
44457;BME280;30159;49.316;8.558;2024-01-10T09:47:09;101515.06;;;-0.41;63.51
44457;BME280;30159;49.316;8.558;2024-01-10T09:49:35;101488.13;;;-0.30;63.22
44457;BME280;30159;49.316;8.558;2024-01-10T09:52:08;101520.88;;;-0.23;62.95
44457;BME280;30159;49.316;8.558;2024-01-10T09:54:38;101521.72;;;-0.45;63.34
44457;BME280;30159;49.316;8.558;2024-01-10T09:57:06;101527.09;;;-0.53;63.94
44457;BME280;30159;49.316;8.558;2024-01-10T09:59:33;101520.09;;;-0.69;63.06
44457;BME280;30159;49.316;8.558;2024-01-10T10:02:01;101522.47;;;-0.74;63.95
44457;BME280;30159;49.316;8.558;2024-01-10T10:04:30;101525.19;;;-0.68;63.14
44457;BME280;30159;49.316;8.558;2024-01-10T10:07:00;101522.75;;;-0.69;63.72
44457;BME280;30159;49.316;8.558;2024-01-10T10:09:28;101522.97;;;-0.56;64.51
44457;BME280;30159;49.316;8.558;2024-01-10T10:11:56;101500.09;;;-0.72;64.23
44457;BME280;30159;49.316;8.558;2024-01-10T10:14:23;101516.00;;;-0.19;64.29
44457;BME280;30159;49.316;8.558;2024-01-10T10:16:51;101522.25;;;-0.12;63.95
44457;BME280;30159;49.316;8.558;2024-01-10T10:19:22;101502.09;;;-0.36;63.71
44457;BME280;30159;49.316;8.558;2024-01-10T10:21:49;101520.72;;;-0.06;63.43
44457;BME280;30159;49.316;8.558;2024-01-10T10:24:16;101529.66;;;-0.07;63.53
44457;BME280;30159;49.316;8.558;2024-01-10T10:26:44;101524.19;;;0.09;63.55
44457;BME280;30159;49.316;8.558;2024-01-10T10:29:11;101520.59;;;-0.13;62.88
44457;BME280;30159;49.316;8.558;2024-01-10T10:31:37;101517.34;;;-0.38;63.42
44457;BME280;30159;49.316;8.558;2024-01-10T10:34:04;101519.56;;;-0.27;64.96
44457;BME280;30159;49.316;8.558;2024-01-10T10:36:30;101511.84;;;-0.13;64.49
44457;BME280;30159;49.316;8.558;2024-01-10T10:38:59;101487.97;;;-0.13;63.96
44457;BME280;30159;49.316;8.558;2024-01-10T10:41:27;101526.00;;;-0.06;63.42
44457;BME280;30159;49.316;8.558;2024-01-10T10:43:58;101507.19;;;-0.11;63.87
44457;BME280;30159;49.316;8.558;2024-01-10T10:46:26;101518.69;;;-0.04;63.92
44457;BME280;30159;49.316;8.558;2024-01-10T10:48:54;101516.88;;;-0.18;63.88
44457;BME280;30159;49.316;8.558;2024-01-10T10:51:27;101497.44;;;-0.34;63.93
44457;BME280;30159;49.316;8.558;2024-01-10T10:53:55;101505.06;;;-0.16;63.77
44457;BME280;30159;49.316;8.558;2024-01-10T10:56:23;101501.88;;;-0.11;63.73
44457;BME280;30159;49.316;8.558;2024-01-10T10:58:50;101508.38;;;0.01;63.79
44457;BME280;30159;49.316;8.558;2024-01-10T11:01:19;101506.91;;;-0.02;63.39
44457;BME280;30159;49.316;8.558;2024-01-10T11:03:47;101495.56;;;-0.10;63.38
44457;BME280;30159;49.316;8.558;2024-01-10T11:06:16;101495.56;;;-0.10;64.22
44457;BME280;30159;49.316;8.558;2024-01-10T11:08:45;101497.13;;;-0.01;63.17
44457;BME280;30159;49.316;8.558;2024-01-10T11:11:20;101498.47;;;-0.05;64.39
44457;BME280;30159;49.316;8.558;2024-01-10T11:14:00;101489.91;;;0.08;64.32
44457;BME280;30159;49.316;8.558;2024-01-10T11:16:51;101493.72;;;0.35;64.11
44457;BME280;30159;49.316;8.558;2024-01-10T11:19:55;101500.66;;;0.51;63.65
44457;BME280;30159;49.316;8.558;2024-01-10T11:22:39;101496.28;;;0.43;64.11
44457;BME280;30159;49.316;8.558;2024-01-10T11:25:09;101500.22;;;0.47;63.50
44457;BME280;30159;49.316;8.558;2024-01-10T11:27:36;101504.41;;;0.56;64.37
44457;BME280;30159;49.316;8.558;2024-01-10T11:30:05;101499.38;;;0.61;63.92
44457;BME280;30159;49.316;8.558;2024-01-10T11:32:33;101499.13;;;0.56;63.69
44457;BME280;30159;49.316;8.558;2024-01-10T11:35:04;101509.44;;;0.51;63.41
44457;BME280;30159;49.316;8.558;2024-01-10T11:37:39;101494.53;;;0.50;63.64
44457;BME280;30159;49.316;8.558;2024-01-10T11:40:07;101494.34;;;0.52;63.53
44457;BME280;30159;49.316;8.558;2024-01-10T11:42:41;101499.63;;;0.67;63.68
44457;BME280;30159;49.316;8.558;2024-01-10T11:45:08;101498.09;;;0.57;63.50
44457;BME280;30159;49.316;8.558;2024-01-10T11:47:38;101495.81;;;0.54;63.07
44457;BME280;30159;49.316;8.558;2024-01-10T11:50:07;101500.81;;;0.64;63.90
44457;BME280;30159;49.316;8.558;2024-01-10T11:52:36;101496.72;;;0.61;63.24
44457;BME280;30159;49.316;8.558;2024-01-10T11:55:04;101494.69;;;0.63;63.78
44457;BME280;30159;49.316;8.558;2024-01-10T11:57:32;101497.22;;;0.72;63.67
44457;BME280;30159;49.316;8.558;2024-01-10T11:59:59;101482.03;;;0.80;64.01
44457;BME280;30159;49.316;8.558;2024-01-10T12:02:27;101490.94;;;0.94;63.45
44457;BME280;30159;49.316;8.558;2024-01-10T12:04:55;101448.03;;;0.54;62.54
44457;BME280;30159;49.316;8.558;2024-01-10T12:07:22;101486.28;;;0.96;63.63
44457;BME280;30159;49.316;8.558;2024-01-10T12:09:49;101493.84;;;0.99;64.14
44457;BME280;30159;49.316;8.558;2024-01-10T12:12:16;101493.47;;;1.02;63.03
44457;BME280;30159;49.316;8.558;2024-01-10T12:14:43;101488.78;;;1.04;63.25
44457;BME280;30159;49.316;8.558;2024-01-10T12:17:11;101490.56;;;0.97;63.01
44457;BME280;30159;49.316;8.558;2024-01-10T12:19:38;101483.28;;;0.84;63.10
44457;BME280;30159;49.316;8.558;2024-01-10T12:22:06;101491.44;;;0.83;63.33
44457;BME280;30159;49.316;8.558;2024-01-10T12:24:32;101479.88;;;0.91;64.04
44457;BME280;30159;49.316;8.558;2024-01-10T12:26:59;101465.00;;;0.75;63.66
44457;BME280;30159;49.316;8.558;2024-01-10T12:29:26;101469.31;;;0.76;62.97
44457;BME280;30159;49.316;8.558;2024-01-10T12:31:53;101485.50;;;0.81;63.56
44457;BME280;30159;49.316;8.558;2024-01-10T12:34:20;101473.50;;;0.85;62.75
44457;BME280;30159;49.316;8.558;2024-01-10T12:36:47;101434.28;;;0.66;63.02
44457;BME280;30159;49.316;8.558;2024-01-10T12:39:16;101461.84;;;0.86;63.44
44457;BME280;30159;49.316;8.558;2024-01-10T12:41:43;101441.47;;;0.72;63.10
44457;BME280;30159;49.316;8.558;2024-01-10T12:44:11;101431.72;;;0.57;63.97
44457;BME280;30159;49.316;8.558;2024-01-10T12:46:49;101473.31;;;0.87;63.38
44457;BME280;30159;49.316;8.558;2024-01-10T12:49:16;101473.03;;;0.81;63.21
44457;BME280;30159;49.316;8.558;2024-01-10T12:51:43;101470.59;;;1.01;62.92